Mirny, Russia
Current Conditions -  °F | °C
As of 8:30 PM on Monday 24 Nov 2014 (Local Time) from URKK Reporting Station
Scattered Clouds Scattered Clouds  
Wind Chill: 13°   Ceiling: Unl
Heat Index: 27°   Visibility: 6mi
Dew Point: 23°   Wind: 20mph
Humidity: 86%   Direction: 70°ENE
Pressure: 30.39"   Gusts: 27mph
Location:  45.55°N, 38.91°E
Report Text: URKK 241730Z 07009G12MPS 9999 SCT023 M03/M05 Q1029 NOSIG RMKQFE769 SC070
Loading
Personal Weather Stations






























Interactive Weather Map New forecast layout! Learn more

10-Day Weather Forecast

Advertisements
Track Severe Weather on mobile